createdAt,value
2018-06-09T00:00:42.910Z,22.93
2018-06-09T00:03:11.167Z,22.13
2018-06-09T00:05:40.044Z,23.07
2018-06-09T00:08:09.296Z,22.70
2018-06-09T00:10:38.141Z,23.47
2018-06-09T00:13:07.875Z,24.17
2018-06-09T00:15:36.922Z,23.50
2018-06-09T00:18:06.060Z,24.93
2018-06-09T00:20:35.184Z,21.33
2018-06-09T00:23:04.900Z,23.67
2018-06-09T00:25:34.149Z,21.70
2018-06-09T00:28:07.474Z,20.40
2018-06-09T00:30:35.936Z,20.80
2018-06-09T00:33:04.729Z,19.00
2018-06-09T00:35:37.969Z,21.27
2018-06-09T00:38:06.701Z,19.80
2018-06-09T00:40:37.522Z,18.93
2018-06-09T00:43:08.367Z,20.30
2018-06-09T00:45:37.858Z,18.73
2018-06-09T00:48:06.799Z,20.63
2018-06-09T00:50:35.097Z,19.63
2018-06-09T00:53:03.607Z,19.67
2018-06-09T00:55:31.864Z,21.57
2018-06-09T00:58:00.059Z,20.13
2018-06-09T01:00:28.289Z,19.47
2018-06-09T01:02:56.482Z,20.17
2018-06-09T01:05:24.675Z,19.30
2018-06-09T01:07:52.804Z,20.17
2018-06-09T01:10:21.047Z,21.30
2018-06-09T01:12:49.302Z,19.70
2018-06-09T01:15:17.573Z,21.63
2018-06-09T01:17:45.699Z,21.57
2018-06-09T01:20:14.440Z,19.60
2018-06-09T01:22:42.667Z,20.17
2018-06-09T01:25:10.833Z,21.87
2018-06-09T01:27:39.009Z,20.87
2018-06-09T01:30:07.592Z,20.40
2018-06-09T01:32:35.833Z,19.40
2018-06-09T01:35:04.045Z,19.13
2018-06-09T01:37:32.283Z,19.30
2018-06-09T01:40:00.496Z,17.80
2018-06-09T01:42:28.629Z,19.37
2018-06-09T01:44:56.808Z,23.57
2018-06-09T01:47:24.969Z,20.87
2018-06-09T01:49:53.203Z,19.93
2018-06-09T01:52:21.390Z,18.90
2018-06-09T01:54:49.511Z,19.37
2018-06-09T01:57:18.218Z,19.23
2018-06-09T01:59:46.394Z,18.57
2018-06-09T02:02:14.670Z,19.53
2018-06-09T02:04:42.790Z,17.43
2018-06-09T02:07:10.966Z,18.40
2018-06-09T02:09:39.251Z,20.10
2018-06-09T02:12:07.545Z,19.60
2018-06-09T02:14:35.780Z,22.03
2018-06-09T02:17:03.969Z,18.50
2018-06-09T02:19:32.275Z,19.03
2018-06-09T02:22:00.459Z,20.43
2018-06-09T02:24:28.729Z,22.57
2018-06-09T02:26:56.939Z,21.77
2018-06-09T02:29:25.107Z,23.53
2018-06-09T02:31:53.309Z,21.67
2018-06-09T02:34:21.993Z,21.53
2018-06-09T02:36:50.256Z,20.83
2018-06-09T02:39:18.446Z,21.77
2018-06-09T02:41:52.981Z,20.90
2018-06-09T02:44:21.477Z,20.80
2018-06-09T02:46:49.617Z,22.60
2018-06-09T02:49:17.839Z,21.37
2018-06-09T02:51:49.855Z,19.50
2018-06-09T02:54:18.124Z,21.57
2018-06-09T02:56:46.354Z,22.40
2018-06-09T02:59:14.473Z,22.00
2018-06-09T03:01:42.648Z,21.93
2018-06-09T03:04:10.815Z,22.37
2018-06-09T03:06:38.937Z,22.50
2018-06-09T03:09:07.659Z,20.23
2018-06-09T03:11:35.868Z,21.60
2018-06-09T03:14:03.977Z,22.07
2018-06-09T03:16:32.195Z,22.30
2018-06-09T03:19:00.418Z,22.97
2018-06-09T03:21:28.588Z,22.40
2018-06-09T03:23:56.660Z,22.40
2018-06-09T03:26:25.382Z,22.53
2018-06-09T03:28:53.645Z,22.43
2018-06-09T03:31:21.841Z,21.37
2018-06-09T03:33:50.097Z,23.60
2018-06-09T03:36:18.329Z,21.77
2018-06-09T03:38:46.491Z,21.50
2018-06-09T03:41:14.697Z,19.43
2018-06-09T03:43:42.929Z,21.17
2018-06-09T03:46:11.066Z,21.00
2018-06-09T03:48:39.230Z,19.37
2018-06-09T03:51:07.446Z,22.03
2018-06-09T03:53:35.633Z,20.67
2018-06-09T03:56:03.874Z,19.87
2018-06-09T03:58:32.027Z,18.73
2018-06-09T04:01:00.194Z,20.43
2018-06-09T04:03:28.672Z,19.67
2018-06-09T04:05:56.874Z,21.37
2018-06-09T04:08:25.050Z,19.80
2018-06-09T04:10:53.247Z,19.50
2018-06-09T04:13:21.293Z,19.30
2018-06-09T04:15:49.673Z,19.20
2018-06-09T04:18:17.773Z,18.23
2018-06-09T04:20:46.083Z,20.30
2018-06-09T04:23:14.278Z,19.43
2018-06-09T04:25:42.502Z,19.00
2018-06-09T04:28:10.711Z,17.33
2018-06-09T04:30:38.817Z,17.27
2018-06-09T04:33:07.016Z,18.63
2018-06-09T04:35:35.194Z,18.67
2018-06-09T04:38:03.363Z,19.60
2018-06-09T04:40:32.150Z,19.23
2018-06-09T04:43:00.457Z,20.80
2018-06-09T04:45:28.609Z,21.07
2018-06-09T04:47:56.822Z,20.17
2018-06-09T04:50:25.099Z,20.73
2018-06-09T04:52:53.567Z,19.77
2018-06-09T04:55:21.759Z,20.33
2018-06-09T04:57:49.993Z,21.70
2018-06-09T05:00:18.093Z,19.17
2018-06-09T05:02:46.250Z,20.13
2018-06-09T05:05:14.561Z,19.83
2018-06-09T05:07:42.785Z,21.70
2018-06-09T05:10:11.008Z,26.37
2018-06-09T05:12:39.193Z,25.90
2018-06-09T05:15:07.489Z,22.90
2018-06-09T05:17:36.143Z,24.17
2018-06-09T05:20:04.457Z,24.83
2018-06-09T05:22:34.524Z,23.13
2018-06-09T05:25:03.094Z,26.13
2018-06-09T05:27:31.779Z,26.10
2018-06-09T05:30:00.027Z,24.40
2018-06-09T05:32:28.274Z,24.40
2018-06-09T05:34:56.419Z,25.17
2018-06-09T05:37:24.601Z,26.07
2018-06-09T05:39:52.772Z,24.27
2018-06-09T05:42:20.923Z,25.80
2018-06-09T05:44:49.082Z,23.33
2018-06-09T05:47:17.218Z,26.07
2018-06-09T05:49:45.419Z,24.17
2018-06-09T05:52:13.673Z,23.97
2018-06-09T05:54:41.819Z,22.07
2018-06-09T05:57:10.009Z,23.43
2018-06-09T05:59:38.712Z,24.03
2018-06-09T06:02:07.173Z,23.93
2018-06-09T06:04:35.484Z,23.07
2018-06-09T06:07:03.793Z,24.77
2018-06-09T06:09:31.911Z,22.77
2018-06-09T06:12:00.305Z,23.60
2018-06-09T06:14:28.618Z,23.53
2018-06-09T06:16:56.949Z,23.53
2018-06-09T06:19:25.114Z,23.73
2018-06-09T06:21:53.306Z,25.10
2018-06-09T06:24:21.442Z,22.90
2018-06-09T06:26:49.617Z,23.60
2018-06-09T06:29:17.866Z,24.77
2018-06-09T06:31:46.023Z,22.50
2018-06-09T06:34:14.186Z,24.33
2018-06-09T06:36:42.478Z,23.43
2018-06-09T06:39:10.832Z,23.67
2018-06-09T06:41:38.999Z,22.40
2018-06-09T06:44:07.154Z,22.23
2018-06-09T06:46:35.947Z,23.50
2018-06-09T06:49:04.341Z,23.63
2018-06-09T06:51:32.546Z,23.50
2018-06-09T06:54:00.874Z,23.87
2018-06-09T06:56:29.037Z,21.60
2018-06-09T06:58:57.474Z,23.37
2018-06-09T07:01:25.739Z,23.00
2018-06-09T07:03:53.985Z,21.87
2018-06-09T07:06:22.121Z,23.10
2018-06-09T07:08:50.378Z,23.13
2018-06-09T07:11:18.510Z,25.00
2018-06-09T07:13:46.703Z,23.40
2018-06-09T07:16:15.029Z,23.13
2018-06-09T07:18:43.651Z,23.50
2018-06-09T07:21:11.807Z,25.17
2018-06-09T07:23:40.052Z,23.00
2018-06-09T07:26:08.222Z,22.50
2018-06-09T07:28:36.432Z,22.93
2018-06-09T07:31:04.633Z,23.93
2018-06-09T07:33:32.846Z,23.63
2018-06-09T07:36:01.114Z,25.53
2018-06-09T07:38:29.322Z,27.50
2018-06-09T07:40:57.417Z,28.10
2018-06-09T07:43:25.635Z,27.50
2018-06-09T07:45:57.247Z,26.43
2018-06-09T07:48:25.421Z,26.70
2018-06-09T07:50:53.595Z,24.17
2018-06-09T07:53:21.772Z,26.97
2018-06-09T07:55:50.023Z,25.70
2018-06-09T07:58:18.122Z,25.47
2018-06-09T08:00:46.674Z,29.43
2018-06-09T08:03:15.084Z,25.70
2018-06-09T08:05:43.316Z,25.50
2018-06-09T08:08:11.407Z,26.17
2018-06-09T08:10:39.672Z,27.63
2018-06-09T08:13:07.857Z,27.20
2018-06-09T08:15:36.022Z,24.80
2018-06-09T08:18:04.542Z,26.63
2018-06-09T08:20:32.799Z,25.10
2018-06-09T08:23:00.974Z,26.33
2018-06-09T08:25:29.233Z,26.30
2018-06-09T08:27:57.445Z,26.40
2018-06-09T08:30:25.947Z,23.90
2018-06-09T08:32:54.055Z,24.87
2018-06-09T08:35:22.242Z,27.73
2018-06-09T08:37:50.943Z,24.20
2018-06-09T08:40:19.195Z,26.37
2018-06-09T08:42:47.512Z,23.43
2018-06-09T08:45:15.798Z,25.70
2018-06-09T08:47:44.009Z,23.70
2018-06-09T08:50:12.354Z,24.00
2018-06-09T08:52:40.439Z,25.30
2018-06-09T08:55:08.730Z,24.30
2018-06-09T08:57:36.928Z,24.20
2018-06-09T09:00:05.133Z,22.90
2018-06-09T09:02:33.486Z,25.33
2018-06-09T09:05:01.902Z,25.93
2018-06-09T09:07:30.170Z,26.43
2018-06-09T09:09:58.306Z,25.00
2018-06-09T09:12:26.571Z,23.43
2018-06-09T09:14:54.841Z,26.30
2018-06-09T09:17:23.154Z,26.23
2018-06-09T09:19:51.326Z,22.23
2018-06-09T09:22:19.538Z,24.37
2018-06-09T09:24:47.856Z,24.10
2018-06-09T09:27:16.000Z,22.07
2018-06-09T09:29:44.339Z,23.57
2018-06-09T09:32:12.550Z,23.00
2018-06-09T09:34:40.650Z,23.70
2018-06-09T09:37:08.911Z,24.83
2018-06-09T09:39:37.078Z,25.43
2018-06-09T09:42:05.270Z,26.63
2018-06-09T09:44:33.449Z,22.80
2018-06-09T09:47:01.657Z,25.83
2018-06-09T09:49:30.075Z,24.57
2018-06-09T09:51:58.614Z,24.97
2018-06-09T09:54:26.864Z,24.30
2018-06-09T09:56:54.995Z,22.70
2018-06-09T09:59:23.185Z,24.57
2018-06-09T10:01:51.471Z,22.93
2018-06-09T10:04:19.580Z,24.83
2018-06-09T10:06:47.775Z,24.37
2018-06-09T10:09:15.990Z,23.50
2018-06-09T10:11:44.176Z,23.67
2018-06-09T10:14:12.350Z,24.90
2018-06-09T10:16:40.513Z,22.40
2018-06-09T10:19:08.624Z,24.07
2018-06-09T10:21:37.006Z,21.70
2018-06-09T10:24:05.114Z,21.93
2018-06-09T10:26:33.585Z,24.23
2018-06-09T10:29:02.179Z,23.23
2018-06-09T10:31:30.438Z,21.50
2018-06-09T10:33:58.600Z,20.53
2018-06-09T10:36:26.804Z,23.73
2018-06-09T10:38:55.000Z,25.13
2018-06-09T10:41:23.149Z,22.80
2018-06-09T10:43:52.107Z,20.80
2018-06-09T10:46:20.396Z,22.80
2018-06-09T10:48:49.786Z,20.50
2018-06-09T10:51:17.983Z,20.53
2018-06-09T10:53:46.125Z,22.13
2018-06-09T10:56:14.312Z,22.87
2018-06-09T10:58:42.485Z,22.53
2018-06-09T11:01:10.751Z,22.53
2018-06-09T11:03:38.965Z,20.57
2018-06-09T11:06:07.154Z,22.20
2018-06-09T11:08:42.133Z,22.60
2018-06-09T11:11:10.240Z,22.27
2018-06-09T11:13:38.475Z,20.43
2018-06-09T11:16:06.688Z,24.10
2018-06-09T11:18:34.867Z,20.37
2018-06-09T11:21:03.442Z,19.83
2018-06-09T11:23:31.618Z,21.60
2018-06-09T11:25:59.967Z,22.37
2018-06-09T11:28:28.131Z,20.87
2018-06-09T11:30:56.309Z,23.23
2018-06-09T11:33:24.586Z,19.70
2018-06-09T11:35:52.757Z,19.50
2018-06-09T11:38:20.938Z,18.30
2018-06-09T11:40:49.135Z,18.53
2018-06-09T11:43:17.400Z,19.33
2018-06-09T11:45:45.653Z,21.20
2018-06-09T11:48:13.850Z,18.17
2018-06-09T11:50:42.066Z,19.77
2018-06-09T11:53:10.141Z,18.93
2018-06-09T11:55:38.331Z,18.60
2018-06-09T11:58:06.726Z,16.80
2018-06-09T12:00:34.980Z,18.80
2018-06-09T12:03:03.195Z,18.70
2018-06-09T12:05:33.046Z,18.93
2018-06-09T12:08:05.883Z,18.00
2018-06-09T12:10:35.105Z,19.60
2018-06-09T12:13:03.991Z,18.70
2018-06-09T12:15:32.546Z,19.20
2018-06-09T12:18:00.786Z,19.97
2018-06-09T12:20:29.023Z,17.77
2018-06-09T12:22:57.197Z,17.50
2018-06-09T12:25:25.538Z,17.37
2018-06-09T12:27:53.790Z,19.77
2018-06-09T12:30:22.063Z,19.17
2018-06-09T12:32:50.283Z,19.47
2018-06-09T12:35:18.433Z,17.60
2018-06-09T12:37:46.771Z,19.57
2018-06-09T12:40:14.776Z,19.63
2018-06-09T12:42:43.032Z,19.27
2018-06-09T12:45:11.638Z,17.80
2018-06-09T12:47:39.980Z,17.37
2018-06-09T12:50:08.164Z,16.57
2018-06-09T12:52:36.344Z,18.00
2018-06-09T12:55:04.590Z,16.57
2018-06-09T12:57:32.832Z,18.33
2018-06-09T13:00:01.009Z,17.90
2018-06-09T13:02:29.321Z,15.27
2018-06-09T13:04:57.629Z,16.70
2018-06-09T13:07:25.797Z,15.07
2018-06-09T13:09:54.046Z,15.73
2018-06-09T13:12:22.218Z,14.20
2018-06-09T13:14:50.439Z,13.43
2018-06-09T13:17:18.684Z,14.10
2018-06-09T13:19:46.962Z,13.43
2018-06-09T13:22:15.710Z,13.50
2018-06-09T13:24:43.981Z,14.20
2018-06-09T13:27:12.226Z,13.43
2018-06-09T13:29:41.352Z,14.20
2018-06-09T13:32:09.642Z,13.27
2018-06-09T13:34:37.841Z,13.00
2018-06-09T13:37:06.022Z,13.37
2018-06-09T13:39:34.189Z,13.60
2018-06-09T13:42:02.459Z,8.77
2018-06-09T13:44:30.690Z,7.40
2018-06-09T13:46:59.883Z,7.20
2018-06-09T13:49:28.235Z,7.13
2018-06-09T13:51:56.460Z,7.40
2018-06-09T13:54:24.638Z,7.03
2018-06-09T13:56:52.718Z,5.60
2018-06-09T13:59:20.826Z,6.13
2018-06-09T14:01:48.948Z,5.70
2018-06-09T14:04:17.580Z,4.57
2018-06-09T14:06:45.757Z,6.07
2018-06-09T14:09:14.022Z,5.77
2018-06-09T14:11:42.291Z,5.20
2018-06-09T14:14:10.434Z,5.77
2018-06-09T14:16:38.697Z,4.80
2018-06-09T14:19:06.894Z,6.27
2018-06-09T14:21:35.018Z,4.17
2018-06-09T14:24:03.299Z,3.67
2018-06-09T14:26:31.498Z,3.60
2018-06-09T14:28:59.653Z,3.80
2018-06-09T14:31:28.953Z,4.83
2018-06-09T14:33:57.269Z,4.67
2018-06-09T14:36:25.988Z,4.60
2018-06-09T14:38:54.619Z,5.00
2018-06-09T14:41:23.310Z,4.20
2018-06-09T14:43:52.123Z,4.40
2018-06-09T14:46:20.973Z,4.60
2018-06-09T14:48:49.297Z,4.67
2018-06-09T14:51:17.523Z,4.00
2018-06-09T14:53:45.832Z,3.60
2018-06-09T14:56:14.207Z,3.77
2018-06-09T14:58:42.563Z,4.30
2018-06-09T15:01:10.866Z,4.37
2018-06-09T15:03:39.195Z,4.37
2018-06-09T15:06:07.464Z,4.57
2018-06-09T15:08:35.915Z,4.93
2018-06-09T15:11:04.299Z,4.43
2018-06-09T15:13:32.647Z,4.97
2018-06-09T15:16:00.946Z,7.93
2018-06-09T15:18:29.332Z,7.23
2018-06-09T15:20:58.237Z,7.97
2018-06-09T15:23:27.090Z,6.93
2018-06-09T15:25:55.456Z,7.53
2018-06-09T15:28:24.009Z,7.47
2018-06-09T15:30:52.130Z,7.80
2018-06-09T15:33:20.253Z,6.60
2018-06-09T15:35:48.533Z,7.13
2018-06-09T15:38:21.083Z,7.50
2018-06-09T15:40:49.467Z,7.70
2018-06-09T15:43:17.791Z,7.30
2018-06-09T15:45:46.190Z,8.30
2018-06-09T15:48:14.400Z,8.50
2018-06-09T15:50:42.674Z,7.80
2018-06-09T15:53:10.938Z,9.40
2018-06-09T15:55:39.130Z,8.97
2018-06-09T15:58:07.367Z,8.47
2018-06-09T16:00:35.626Z,9.00
2018-06-09T16:03:03.891Z,8.27
2018-06-09T16:05:32.734Z,8.80
2018-06-09T16:08:01.056Z,11.47
2018-06-09T16:10:29.995Z,9.43
2018-06-09T16:13:02.935Z,11.73
2018-06-09T16:15:31.709Z,10.10
2018-06-09T16:17:59.934Z,12.60
2018-06-09T16:20:28.828Z,11.90
2018-06-09T16:22:56.921Z,12.20
2018-06-09T16:25:25.075Z,11.00
2018-06-09T16:27:53.242Z,11.63
2018-06-09T16:30:21.648Z,12.70
2018-06-09T16:32:49.844Z,12.50
2018-06-09T16:35:18.075Z,12.00
2018-06-09T16:37:46.301Z,13.17
2018-06-09T16:40:14.626Z,11.77
2018-06-09T16:42:42.865Z,12.37
2018-06-09T16:45:11.099Z,12.13
2018-06-09T16:47:39.510Z,13.00
2018-06-09T16:50:07.782Z,11.37
2018-06-09T16:52:36.029Z,11.93
2018-06-09T16:55:05.316Z,12.40
2018-06-09T16:57:34.629Z,15.10
2018-06-09T17:00:03.100Z,13.30
2018-06-09T17:02:31.692Z,13.73
2018-06-09T17:04:59.851Z,12.73
2018-06-09T17:07:28.110Z,13.17
2018-06-09T17:09:56.434Z,14.47
2018-06-09T17:12:31.572Z,14.70
2018-06-09T17:14:59.732Z,15.87
2018-06-09T17:17:28.153Z,15.27
2018-06-09T17:19:56.453Z,15.37
2018-06-09T17:22:24.632Z,16.77
2018-06-09T17:24:52.841Z,15.90
2018-06-09T17:27:21.041Z,22.27
2018-06-09T17:29:49.371Z,17.70
2018-06-09T17:32:17.537Z,17.67
2018-06-09T17:35:13.486Z,19.43
2018-06-09T17:37:47.453Z,15.83
2018-06-09T17:40:24.209Z,14.30
2018-06-09T17:42:53.147Z,13.50
2018-06-09T17:45:37.242Z,13.37
2018-06-09T17:48:08.623Z,12.40
2018-06-09T17:50:45.401Z,11.90
2018-06-09T17:53:13.587Z,23.23
2018-06-09T17:55:41.919Z,13.37
2018-06-09T17:58:10.156Z,11.47
2018-06-09T18:00:39.000Z,10.70
2018-06-09T18:03:07.341Z,10.27
2018-06-09T18:05:35.708Z,11.27
2018-06-09T18:08:04.037Z,10.17
2018-06-09T18:10:32.385Z,11.20
2018-06-09T18:13:00.586Z,10.80
2018-06-09T18:15:28.787Z,9.50
2018-06-09T18:17:57.220Z,9.47
2018-06-09T18:20:25.436Z,11.27
2018-06-09T18:22:53.654Z,9.53
2018-06-09T18:25:21.902Z,10.20
2018-06-09T18:27:50.059Z,10.33
2018-06-09T18:30:18.288Z,10.37
2018-06-09T18:32:46.462Z,9.80
2018-06-09T18:35:15.039Z,9.60
2018-06-09T18:37:43.319Z,10.37
2018-06-09T18:40:11.469Z,10.80
2018-06-09T18:42:39.888Z,9.50
2018-06-09T18:45:15.149Z,9.03
2018-06-09T18:47:49.745Z,9.03
2018-06-09T18:50:21.161Z,8.73
2018-06-09T18:52:52.198Z,10.57
2018-06-09T18:55:25.742Z,10.37
2018-06-09T18:57:54.036Z,9.70
2018-06-09T19:00:23.062Z,9.57
2018-06-09T19:02:51.380Z,9.40
2018-06-09T19:05:20.374Z,9.90
2018-06-09T19:07:48.537Z,11.07
2018-06-09T19:10:16.822Z,9.77
2018-06-09T19:12:45.120Z,11.17
2018-06-09T19:15:13.326Z,9.53
2018-06-09T19:17:41.599Z,10.00
2018-06-09T19:20:09.874Z,10.40
2018-06-09T19:22:38.045Z,9.90
2018-06-09T19:25:06.259Z,11.07
2018-06-09T19:27:34.500Z,10.73
2018-06-09T19:30:02.724Z,11.00
2018-06-09T19:32:30.893Z,10.40
2018-06-09T19:34:59.132Z,10.50
2018-06-09T19:37:27.489Z,10.30
2018-06-09T19:39:55.750Z,12.50
2018-06-09T19:42:23.985Z,12.50
2018-06-09T19:44:52.220Z,12.80
2018-06-09T19:47:24.426Z,14.40
2018-06-09T19:49:52.636Z,13.20
2018-06-09T19:52:20.835Z,14.17
2018-06-09T19:54:49.516Z,14.80
2018-06-09T19:57:17.759Z,15.23
2018-06-09T19:59:46.209Z,13.63
2018-06-09T20:02:14.440Z,13.97
2018-06-09T20:04:42.806Z,13.47
2018-06-09T20:07:11.210Z,14.27
2018-06-09T20:09:39.465Z,14.30
2018-06-09T20:12:07.827Z,13.60
2018-06-09T20:14:36.144Z,12.87
2018-06-09T20:17:04.705Z,14.17
2018-06-09T20:19:32.899Z,14.57
2018-06-09T20:22:01.354Z,13.80
2018-06-09T20:24:29.882Z,13.77
2018-06-09T20:26:58.094Z,13.17
2018-06-09T20:29:26.529Z,13.87
2018-06-09T20:31:54.803Z,13.90
2018-06-09T20:34:23.113Z,14.93
2018-06-09T20:36:52.040Z,15.27
2018-06-09T20:39:20.899Z,15.63
2018-06-09T20:41:49.248Z,14.97
2018-06-09T20:44:17.534Z,13.63
2018-06-09T20:46:45.923Z,14.73
2018-06-09T20:49:14.886Z,15.90
2018-06-09T20:51:43.149Z,15.07
2018-06-09T20:54:11.269Z,13.77
2018-06-09T20:56:39.433Z,14.97
2018-06-09T20:59:07.734Z,16.10
2018-06-09T21:01:35.994Z,16.17
2018-06-09T21:04:04.305Z,16.40
2018-06-09T21:06:32.504Z,16.40
2018-06-09T21:09:00.644Z,17.80
2018-06-09T21:11:28.856Z,17.00
2018-06-09T21:13:56.961Z,17.73
2018-06-09T21:16:25.157Z,18.07
2018-06-09T21:18:53.686Z,17.63
2018-06-09T21:21:21.830Z,16.73
2018-06-09T21:23:50.237Z,17.10
2018-06-09T21:26:18.477Z,18.17
2018-06-09T21:28:52.652Z,17.40
2018-06-09T21:31:26.769Z,17.43
2018-06-09T21:34:12.195Z,17.70
2018-06-09T21:36:46.012Z,21.10
2018-06-09T21:39:19.531Z,19.07
2018-06-09T21:41:53.387Z,19.40
2018-06-09T21:44:27.304Z,20.10
2018-06-09T21:46:55.953Z,20.17
2018-06-09T21:49:24.270Z,20.67
2018-06-09T21:51:52.337Z,18.50
2018-06-09T21:54:20.616Z,20.00
2018-06-09T21:56:48.803Z,19.93
2018-06-09T21:59:17.177Z,19.73
2018-06-09T22:01:45.319Z,20.87
2018-06-09T22:04:13.590Z,19.30
2018-06-09T22:06:41.735Z,19.23
2018-06-09T22:09:10.015Z,19.43
2018-06-09T22:11:38.237Z,19.63
2018-06-09T22:14:06.425Z,19.80
2018-06-09T22:16:34.642Z,18.60
2018-06-09T22:19:02.786Z,20.10
2018-06-09T22:21:30.960Z,20.50
2018-06-09T22:23:59.707Z,19.47
2018-06-09T22:26:28.025Z,21.20
2018-06-09T22:28:56.156Z,18.70
2018-06-09T22:31:24.342Z,20.43
2018-06-09T22:33:52.458Z,19.73
2018-06-09T22:36:20.748Z,21.07
2018-06-09T22:38:49.008Z,22.27
2018-06-09T22:41:17.195Z,21.73
2018-06-09T22:43:45.358Z,23.60
2018-06-09T22:46:13.495Z,23.20
2018-06-09T22:48:41.622Z,24.40
2018-06-09T22:51:09.778Z,24.10
2018-06-09T22:53:38.010Z,25.30
2018-06-09T22:56:06.184Z,27.57
2018-06-09T22:58:34.403Z,25.97
2018-06-09T23:01:02.921Z,29.10
2018-06-09T23:03:31.274Z,29.40
2018-06-09T23:05:59.430Z,28.27
2018-06-09T23:08:27.697Z,29.80
2018-06-09T23:10:55.940Z,31.03
2018-06-09T23:13:24.136Z,31.10
2018-06-09T23:15:52.290Z,32.37
2018-06-09T23:18:20.447Z,32.33
2018-06-09T23:20:48.669Z,32.40
2018-06-09T23:23:16.781Z,35.00
2018-06-09T23:25:44.902Z,33.23
2018-06-09T23:28:13.082Z,32.43
2018-06-09T23:30:41.230Z,32.77
2018-06-09T23:33:09.284Z,33.67
2018-06-09T23:35:37.441Z,33.90
2018-06-09T23:38:05.889Z,31.67
2018-06-09T23:40:34.158Z,30.60
2018-06-09T23:43:02.494Z,30.67
2018-06-09T23:45:30.501Z,28.87
2018-06-09T23:47:58.621Z,31.40
2018-06-09T23:50:26.737Z,30.83
2018-06-09T23:52:54.876Z,30.97
2018-06-09T23:55:23.104Z,32.73
2018-06-09T23:57:51.489Z,31.60
